createdAt,value
2019-05-07T00:01:55.334Z,15.80
2019-05-07T00:04:22.593Z,14.43
2019-05-07T00:06:49.245Z,15.17
2019-05-07T00:09:15.753Z,16.07
2019-05-07T00:11:42.699Z,16.73
2019-05-07T00:14:09.445Z,15.57
2019-05-07T00:16:36.255Z,17.13
2019-05-07T00:19:03.851Z,15.60
2019-05-07T00:21:32.570Z,15.80
2019-05-07T00:23:58.943Z,16.60
2019-05-07T00:26:25.443Z,16.80
2019-05-07T00:28:52.667Z,15.63
2019-05-07T00:31:19.281Z,15.93
2019-05-07T00:33:45.898Z,17.63
2019-05-07T00:36:14.211Z,17.13
2019-05-07T00:38:42.849Z,16.70
2019-05-07T00:41:12.325Z,17.30
2019-05-07T00:43:39.777Z,17.60
2019-05-07T00:46:12.887Z,16.67
2019-05-07T00:48:39.080Z,16.93
2019-05-07T00:51:24.080Z,17.50
2019-05-07T00:53:52.032Z,13.50
2019-05-07T00:56:18.865Z,15.97
2019-05-07T00:58:45.530Z,15.90
2019-05-07T01:01:13.033Z,16.53
2019-05-07T01:03:39.671Z,17.37
2019-05-07T01:06:06.177Z,16.23
2019-05-07T01:08:32.603Z,16.03
2019-05-07T01:10:59.081Z,15.57
2019-05-07T01:13:25.620Z,15.87
2019-05-07T01:15:53.199Z,15.70
2019-05-07T01:18:19.950Z,16.47
2019-05-07T01:20:46.308Z,15.37
2019-05-07T01:23:13.400Z,17.20
2019-05-07T01:25:40.150Z,16.50
2019-05-07T01:28:06.562Z,16.53
2019-05-07T01:30:33.403Z,15.83
2019-05-07T01:33:02.799Z,17.37
2019-05-07T01:35:43.471Z,15.33
2019-05-07T01:38:12.233Z,15.67
2019-05-07T01:40:38.142Z,15.73
2019-05-07T01:43:04.649Z,15.90
2019-05-07T01:45:43.155Z,16.37
2019-05-07T01:47:59.456Z,16.10
2019-05-07T01:50:25.727Z,17.53
2019-05-07T01:52:52.335Z,16.57
2019-05-07T01:55:18.877Z,16.10
2019-05-07T01:57:45.166Z,16.03
2019-05-07T02:00:13.045Z,14.53
2019-05-07T02:02:52.053Z,16.67
2019-05-07T02:05:26.293Z,16.40
2019-05-07T02:07:54.681Z,16.10
2019-05-07T02:10:25.743Z,16.57
2019-05-07T02:12:52.654Z,17.17
2019-05-07T02:15:19.354Z,17.13
2019-05-07T02:17:45.765Z,17.53
2019-05-07T02:20:13.105Z,17.43
2019-05-07T02:22:39.786Z,16.40
2019-05-07T02:25:06.558Z,16.50
2019-05-07T02:27:33.072Z,16.57
2019-05-07T02:29:59.577Z,15.73
2019-05-07T02:32:25.972Z,15.20
2019-05-07T02:34:54.441Z,15.33
2019-05-07T02:37:26.180Z,15.73
2019-05-07T02:40:04.938Z,13.77
2019-05-07T02:42:33.585Z,15.70
2019-05-07T02:45:13.969Z,16.00
2019-05-07T02:47:43.515Z,13.93
2019-05-07T02:50:22.613Z,14.80
2019-05-07T02:52:53.330Z,14.47
2019-05-07T02:55:23.403Z,14.80
2019-05-07T02:57:50.113Z,13.60
2019-05-07T03:00:19.257Z,15.50
2019-05-07T03:02:45.025Z,14.90
2019-05-07T03:05:13.755Z,15.90
2019-05-07T03:07:42.811Z,14.63
2019-05-07T03:10:08.837Z,14.47
2019-05-07T03:12:35.144Z,13.90
2019-05-07T03:15:04.589Z,12.43
2019-05-07T03:17:33.171Z,14.77
2019-05-07T03:20:03.098Z,14.23
2019-05-07T03:22:29.497Z,14.93
2019-05-07T03:24:58.029Z,15.13
2019-05-07T03:27:24.544Z,15.37
2019-05-07T03:29:53.585Z,14.43
2019-05-07T03:32:36.781Z,14.70
2019-05-07T03:35:07.821Z,15.07
2019-05-07T03:37:36.492Z,14.20
2019-05-07T03:40:06.771Z,14.70
2019-05-07T03:42:33.871Z,16.70
2019-05-07T03:45:08.524Z,14.40
2019-05-07T03:47:36.923Z,15.60
2019-05-07T03:50:09.924Z,15.60
2019-05-07T03:52:36.659Z,15.50
2019-05-07T03:55:06.554Z,16.07
2019-05-07T03:57:33.513Z,15.90
2019-05-07T04:00:00.148Z,16.07
2019-05-07T04:02:27.117Z,17.30
2019-05-07T04:04:53.547Z,16.00
2019-05-07T04:07:22.940Z,16.80
2019-05-07T04:09:48.231Z,15.13
2019-05-07T04:12:14.823Z,16.43
2019-05-07T04:14:43.239Z,18.03
2019-05-07T04:17:17.590Z,15.87
2019-05-07T04:19:37.998Z,16.43
2019-05-07T04:22:04.599Z,16.53
2019-05-07T04:24:49.553Z,15.93
2019-05-07T04:27:17.743Z,16.57
2019-05-07T04:29:44.071Z,16.93
2019-05-07T04:32:14.234Z,16.70
2019-05-07T04:34:47.846Z,16.07
2019-05-07T04:37:14.789Z,16.70
2019-05-07T04:39:43.030Z,17.23
2019-05-07T04:42:09.382Z,18.67
2019-05-07T04:44:36.012Z,17.50
2019-05-07T04:47:04.277Z,18.17
2019-05-07T04:49:33.239Z,17.67
2019-05-07T04:52:03.969Z,17.73
2019-05-07T04:54:29.384Z,18.73
2019-05-07T04:56:55.934Z,19.13
2019-05-07T04:59:23.765Z,18.67
2019-05-07T05:01:58.432Z,20.68
2019-05-07T05:04:30.735Z,17.50
2019-05-07T05:06:53.098Z,17.90
2019-05-07T05:09:19.667Z,18.10
2019-05-07T05:11:46.210Z,20.53
2019-05-07T05:14:13.688Z,20.67
2019-05-07T05:16:42.452Z,19.70
2019-05-07T05:19:08.835Z,20.13
2019-05-07T05:21:43.406Z,21.17
2019-05-07T05:24:22.184Z,20.17
2019-05-07T05:26:48.597Z,20.73
2019-05-07T05:29:15.574Z,21.97
2019-05-07T05:31:42.294Z,20.63
2019-05-07T05:34:08.748Z,18.27
2019-05-07T05:36:35.363Z,18.63
2019-05-07T05:39:04.314Z,18.70
2019-05-07T05:41:34.065Z,21.17
2019-05-07T05:44:02.445Z,22.97
2019-05-07T05:46:31.939Z,22.10
2019-05-07T05:48:58.553Z,21.73
2019-05-07T05:51:39.042Z,21.73
2019-05-07T05:54:25.564Z,22.63
2019-05-07T05:57:03.605Z,22.67
2019-05-07T05:59:48.236Z,21.93
2019-05-07T06:02:17.508Z,22.17
2019-05-07T06:04:48.873Z,22.67
2019-05-07T06:07:26.372Z,22.97
2019-05-07T06:10:03.443Z,22.53
2019-05-07T06:12:42.704Z,22.53
2019-05-07T06:15:28.522Z,21.90
2019-05-07T06:17:59.880Z,22.23
2019-05-07T06:20:32.081Z,22.30
2019-05-07T06:23:09.748Z,22.43
2019-05-07T06:25:36.378Z,22.23
2019-05-07T06:28:02.995Z,22.60
2019-05-07T06:30:29.594Z,22.57
2019-05-07T06:32:55.993Z,22.97
2019-05-07T06:35:22.987Z,23.07
2019-05-07T06:37:52.034Z,21.43
2019-05-07T06:40:32.070Z,23.03
2019-05-07T06:43:03.216Z,23.00
2019-05-07T06:45:35.139Z,23.70
2019-05-07T06:47:59.959Z,24.67
2019-05-07T06:50:26.238Z,22.73
2019-05-07T06:52:52.743Z,23.83
2019-05-07T06:55:19.218Z,23.30
2019-05-07T06:57:45.736Z,21.97
2019-05-07T07:00:24.447Z,24.30
2019-05-07T07:03:12.722Z,23.03
2019-05-07T07:05:42.573Z,22.83
2019-05-07T07:08:27.704Z,21.93
2019-05-07T07:11:08.259Z,23.13
2019-05-07T07:13:34.797Z,22.93
2019-05-07T07:16:02.012Z,20.70
2019-05-07T07:18:28.770Z,20.63
2019-05-07T07:20:55.374Z,22.23
2019-05-07T07:23:22.655Z,22.43
2019-05-07T07:25:49.368Z,21.50
2019-05-07T07:28:15.748Z,19.73
2019-05-07T07:30:47.335Z,19.03
2019-05-07T07:33:16.335Z,18.47
2019-05-07T07:35:42.925Z,17.63
2019-05-07T07:38:27.590Z,16.77
2019-05-07T07:40:58.989Z,11.30
2019-05-07T07:43:25.467Z,12.90
2019-05-07T07:45:52.576Z,12.00
2019-05-07T07:48:19.088Z,10.93
2019-05-07T07:50:45.508Z,13.07
2019-05-07T07:53:13.017Z,12.37
2019-05-07T07:55:42.621Z,14.43
2019-05-07T07:58:13.975Z,13.90
2019-05-07T08:00:52.299Z,10.60
2019-05-07T08:03:18.780Z,8.90
2019-05-07T08:05:45.287Z,6.70
2019-05-07T08:08:12.880Z,6.70
2019-05-07T08:10:39.963Z,6.23
2019-05-07T08:13:06.544Z,6.87
2019-05-07T08:15:33.240Z,7.27
2019-05-07T08:17:59.738Z,9.33
2019-05-07T08:20:26.584Z,8.67
2019-05-07T08:22:53.473Z,8.73
2019-05-07T08:25:22.049Z,7.60
2019-05-07T08:27:48.721Z,8.63
2019-05-07T08:30:17.805Z,9.53
2019-05-07T08:32:52.917Z,8.17
2019-05-07T08:35:24.353Z,9.77
2019-05-07T08:37:51.817Z,9.03
2019-05-07T08:40:18.493Z,9.13
2019-05-07T08:42:45.104Z,9.13
2019-05-07T08:45:32.635Z,9.10
2019-05-07T08:48:13.159Z,9.80
2019-05-07T08:50:41.835Z,9.07
2019-05-07T08:53:08.109Z,10.37
2019-05-07T08:55:34.609Z,10.57
2019-05-07T08:58:02.208Z,10.13
2019-05-07T09:00:28.867Z,10.07
2019-05-07T09:02:55.461Z,10.43
2019-05-07T09:05:22.178Z,9.43
2019-05-07T09:07:48.748Z,10.70
2019-05-07T09:10:15.262Z,9.70
2019-05-07T09:12:42.854Z,9.90
2019-05-07T09:15:12.295Z,9.20
2019-05-07T09:17:38.993Z,10.87
2019-05-07T09:20:08.908Z,9.30
2019-05-07T09:22:34.511Z,10.03
2019-05-07T09:25:03.157Z,9.73
2019-05-07T09:27:34.172Z,9.70
2019-05-07T09:30:18.978Z,9.57
2019-05-07T09:32:47.545Z,9.93
2019-05-07T09:35:24.708Z,9.43
2019-05-07T09:37:52.710Z,11.27
2019-05-07T09:40:21.612Z,10.90
2019-05-07T09:42:48.263Z,10.80
2019-05-07T09:45:15.497Z,9.73
2019-05-07T09:47:42.254Z,9.57
2019-05-07T09:50:09.287Z,10.23
2019-05-07T09:52:35.807Z,10.10
2019-05-07T09:55:13.807Z,10.50
2019-05-07T09:57:33.968Z,10.30
2019-05-07T10:00:02.030Z,10.67
2019-05-07T10:02:28.203Z,10.27
2019-05-07T10:04:55.019Z,11.13
2019-05-07T10:07:22.538Z,10.93
2019-05-07T10:09:49.262Z,10.30
2019-05-07T10:12:17.854Z,10.43
2019-05-07T10:14:44.834Z,18.90
2019-05-07T10:17:13.525Z,47.87
2019-05-07T10:19:41.715Z,17.77
2019-05-07T10:22:08.396Z,12.13
2019-05-07T10:24:35.462Z,10.83
2019-05-07T10:27:02.306Z,11.30
2019-05-07T10:29:29.012Z,11.50
2019-05-07T10:31:55.522Z,11.13
2019-05-07T10:34:22.816Z,10.13
2019-05-07T10:36:49.483Z,9.67
2019-05-07T10:39:16.218Z,9.77
2019-05-07T10:41:42.809Z,9.33
2019-05-07T10:44:11.872Z,10.27
2019-05-07T10:46:52.638Z,10.80
2019-05-07T10:49:23.739Z,9.60
2019-05-07T10:51:51.805Z,10.30
2019-05-07T10:54:18.618Z,10.87
2019-05-07T10:56:45.298Z,10.57
2019-05-07T10:59:12.290Z,10.60
2019-05-07T11:01:42.524Z,10.70
2019-05-07T11:04:09.292Z,10.00
2019-05-07T11:06:35.915Z,10.43
2019-05-07T11:09:06.135Z,10.40
2019-05-07T11:11:32.651Z,9.27
2019-05-07T11:13:59.269Z,9.77
2019-05-07T11:16:27.749Z,9.60
2019-05-07T11:18:54.224Z,10.03
2019-05-07T11:21:29.567Z,10.10
2019-05-07T11:23:58.604Z,10.27
2019-05-07T11:26:26.243Z,9.83
2019-05-07T11:28:52.631Z,10.97
2019-05-07T11:31:19.397Z,10.30
2019-05-07T11:33:46.194Z,10.57
2019-05-07T11:36:12.598Z,10.17
2019-05-07T11:38:39.265Z,10.00
2019-05-07T11:41:05.881Z,10.33
2019-05-07T11:43:39.313Z,10.10
2019-05-07T11:46:12.900Z,9.80
2019-05-07T11:48:42.609Z,9.77
2019-05-07T11:51:15.266Z,10.90
2019-05-07T11:54:01.961Z,12.17
2019-05-07T11:56:28.561Z,12.20
2019-05-07T11:58:55.063Z,11.63
2019-05-07T12:01:22.441Z,12.53
2019-05-07T12:03:49.167Z,12.90
2019-05-07T12:06:15.814Z,12.40
2019-05-07T12:08:49.745Z,12.53
2019-05-07T12:11:11.961Z,11.60
2019-05-07T12:13:38.489Z,11.50
2019-05-07T12:16:05.113Z,12.13
2019-05-07T12:18:32.087Z,11.13
2019-05-07T12:20:58.895Z,10.93
2019-05-07T12:23:25.436Z,10.63
2019-05-07T12:25:52.877Z,10.50
2019-05-07T12:28:22.285Z,9.67
2019-05-07T12:31:02.295Z,11.23
2019-05-07T12:33:49.289Z,9.73
2019-05-07T12:36:15.911Z,8.93
2019-05-07T12:38:42.504Z,9.50
2019-05-07T12:41:27.659Z,9.13
2019-05-07T12:43:54.220Z,10.20
2019-05-07T12:46:22.346Z,10.60
2019-05-07T12:48:48.970Z,10.63
2019-05-07T12:51:15.637Z,10.50
2019-05-07T12:53:43.953Z,10.33
2019-05-07T12:56:10.674Z,10.10
2019-05-07T12:58:37.219Z,9.87
2019-05-07T13:01:05.958Z,9.20
2019-05-07T13:03:34.528Z,10.93
2019-05-07T13:06:02.506Z,10.70
2019-05-07T13:08:29.312Z,11.23
2019-05-07T13:10:55.902Z,11.53
2019-05-07T13:13:22.534Z,10.60
2019-05-07T13:15:49.208Z,11.73
2019-05-07T13:18:15.794Z,10.67
2019-05-07T13:20:42.629Z,16.17
2019-05-07T13:23:09.224Z,13.23
2019-05-07T13:25:35.950Z,27.00
2019-05-07T13:28:02.965Z,41.10
2019-05-07T13:30:29.729Z,24.37
2019-05-07T13:32:58.213Z,15.00
2019-05-07T13:35:26.046Z,13.87
2019-05-07T13:38:04.065Z,11.60
2019-05-07T13:40:38.704Z,11.60
2019-05-07T13:43:11.886Z,11.77
2019-05-07T13:45:44.530Z,10.73
2019-05-07T13:48:19.301Z,11.97
2019-05-07T13:50:46.653Z,11.73
2019-05-07T13:53:13.700Z,9.97
2019-05-07T13:55:42.227Z,10.77
2019-05-07T13:58:09.243Z,11.43
2019-05-07T14:00:38.119Z,10.10
2019-05-07T14:03:04.878Z,9.33
2019-05-07T14:05:32.341Z,9.37
2019-05-07T14:07:59.294Z,9.07
2019-05-07T14:10:25.889Z,9.30
2019-05-07T14:12:52.538Z,9.00
2019-05-07T14:15:19.663Z,9.20
2019-05-07T14:17:46.313Z,8.57
2019-05-07T14:20:13.774Z,7.93
2019-05-07T14:22:42.314Z,8.67
2019-05-07T14:25:09.235Z,8.67
2019-05-07T14:27:35.871Z,7.60
2019-05-07T14:30:05.705Z,9.63
2019-05-07T14:32:33.992Z,9.00
2019-05-07T14:35:02.533Z,8.83
2019-05-07T14:37:32.487Z,9.40
2019-05-07T14:39:59.118Z,10.20
2019-05-07T14:42:27.675Z,9.57
2019-05-07T14:44:54.704Z,9.80
2019-05-07T14:47:22.274Z,13.57
2019-05-07T14:49:49.108Z,10.13
2019-05-07T14:52:29.072Z,15.80
2019-05-07T14:54:44.275Z,15.03
2019-05-07T14:57:11.135Z,27.73
2019-05-07T14:59:37.803Z,10.37
2019-05-07T15:02:04.489Z,9.80
2019-05-07T15:04:31.589Z,9.53
2019-05-07T15:06:58.196Z,8.93
2019-05-07T15:09:25.213Z,8.23
2019-05-07T15:11:52.667Z,8.63
2019-05-07T15:14:19.487Z,9.17
2019-05-07T15:16:48.367Z,9.40
2019-05-07T15:19:15.015Z,9.13
2019-05-07T15:21:42.569Z,9.17
2019-05-07T15:24:12.676Z,8.83
2019-05-07T15:26:41.807Z,8.73
2019-05-07T15:29:12.120Z,9.23
2019-05-07T15:31:55.487Z,8.43
2019-05-07T15:34:22.285Z,9.50
2019-05-07T15:36:48.849Z,9.60
2019-05-07T15:39:15.450Z,8.97
2019-05-07T15:41:42.593Z,9.10
2019-05-07T15:44:11.764Z,8.23
2019-05-07T15:46:38.017Z,8.00
2019-05-07T15:49:04.692Z,7.87
2019-05-07T15:51:32.800Z,8.00
2019-05-07T15:54:00.514Z,8.03
2019-05-07T15:56:27.215Z,7.87
2019-05-07T15:58:53.895Z,8.27
2019-05-07T16:01:22.206Z,7.83
2019-05-07T16:03:49.129Z,8.77
2019-05-07T16:06:15.672Z,8.37
2019-05-07T16:08:44.141Z,8.17
2019-05-07T16:11:12.572Z,8.30
2019-05-07T16:13:42.052Z,7.37
2019-05-07T16:16:08.912Z,8.10
2019-05-07T16:18:37.419Z,8.47
2019-05-07T16:21:04.959Z,8.50
2019-05-07T16:23:32.634Z,7.80
2019-05-07T16:25:59.528Z,8.90
2019-05-07T16:28:26.059Z,8.40
2019-05-07T16:30:52.895Z,8.90
2019-05-07T16:33:19.555Z,8.20
2019-05-07T16:35:46.215Z,9.13
2019-05-07T16:38:15.603Z,7.97
2019-05-07T16:40:42.892Z,8.17
2019-05-07T16:43:11.874Z,8.80
2019-05-07T16:45:38.259Z,9.00
2019-05-07T16:48:05.179Z,8.57
2019-05-07T16:50:32.606Z,9.03
2019-05-07T16:52:59.399Z,8.90
2019-05-07T16:55:36.785Z,9.20
2019-05-07T16:58:09.334Z,8.67
2019-05-07T17:00:37.906Z,7.80
2019-05-07T17:03:06.528Z,8.60
2019-05-07T17:05:33.070Z,8.20
2019-05-07T17:08:02.420Z,9.30
2019-05-07T17:10:31.635Z,8.50
2019-05-07T17:12:57.964Z,9.07
2019-05-07T17:15:24.580Z,8.93
2019-05-07T17:17:59.930Z,8.43
2019-05-07T17:20:26.788Z,8.87
2019-05-07T17:22:53.781Z,8.53
2019-05-07T17:25:38.406Z,8.17
2019-05-07T17:28:07.438Z,8.77
2019-05-07T17:30:37.509Z,8.47
2019-05-07T17:33:05.164Z,8.43
2019-05-07T17:35:34.372Z,9.00
2019-05-07T17:38:07.332Z,7.87
2019-05-07T17:40:29.184Z,7.67
2019-05-07T17:42:55.876Z,7.20
2019-05-07T17:45:22.847Z,8.00
2019-05-07T17:47:52.287Z,8.07
2019-05-07T17:50:23.184Z,7.87
2019-05-07T17:52:49.676Z,7.73
2019-05-07T17:55:16.610Z,6.93
2019-05-07T17:57:43.255Z,7.80
2019-05-07T18:00:12.851Z,8.00
2019-05-07T18:02:42.164Z,8.37
2019-05-07T18:05:09.082Z,7.53
2019-05-07T18:07:36.828Z,8.23
2019-05-07T18:10:04.330Z,8.43
2019-05-07T18:12:31.981Z,9.00
2019-05-07T18:14:58.836Z,8.93
2019-05-07T18:17:27.586Z,10.20
2019-05-07T18:19:54.128Z,8.50
2019-05-07T18:22:22.171Z,8.73
2019-05-07T18:24:49.119Z,9.10
2019-05-07T18:27:17.799Z,8.40
2019-05-07T18:29:44.401Z,8.27
2019-05-07T18:32:12.412Z,9.73
2019-05-07T18:34:39.387Z,8.57
2019-05-07T18:37:06.198Z,9.30
2019-05-07T18:39:33.001Z,8.93
2019-05-07T18:41:59.805Z,8.87
2019-05-07T18:44:26.755Z,9.03
2019-05-07T18:46:53.601Z,8.60
2019-05-07T18:49:20.222Z,9.33
2019-05-07T18:51:46.940Z,8.00
2019-05-07T18:54:26.921Z,8.67
2019-05-07T18:56:42.234Z,8.97
2019-05-07T18:59:09.521Z,8.70
2019-05-07T19:01:38.242Z,9.27
2019-05-07T19:04:05.343Z,8.87
2019-05-07T19:06:32.260Z,9.33
2019-05-07T19:08:58.978Z,9.23
2019-05-07T19:11:25.772Z,8.80
2019-05-07T19:13:53.499Z,9.17
2019-05-07T19:16:26.151Z,9.23
2019-05-07T19:18:53.324Z,6.50
2019-05-07T19:21:22.239Z,6.80
2019-05-07T19:23:49.056Z,6.50
2019-05-07T19:26:16.199Z,6.90
2019-05-07T19:28:43.104Z,6.97
2019-05-07T19:31:12.256Z,6.77
2019-05-07T19:33:41.767Z,6.43
2019-05-07T19:36:10.190Z,7.77
2019-05-07T19:38:37.411Z,8.10
2019-05-07T19:41:04.264Z,8.37
2019-05-07T19:43:32.576Z,8.13
2019-05-07T19:45:59.915Z,8.17
2019-05-07T19:48:26.836Z,8.17
2019-05-07T19:50:53.737Z,8.43
2019-05-07T19:53:23.254Z,9.17
2019-05-07T19:56:03.182Z,8.40
2019-05-07T19:58:32.534Z,8.47
2019-05-07T20:00:59.999Z,8.07
2019-05-07T20:03:26.915Z,9.03
2019-05-07T20:05:53.852Z,9.00
2019-05-07T20:08:21.529Z,8.67
2019-05-07T20:10:51.864Z,8.90
2019-05-07T20:13:20.367Z,7.80
2019-05-07T20:15:48.962Z,8.10
2019-05-07T20:18:15.851Z,8.93
2019-05-07T20:20:42.707Z,8.77
2019-05-07T20:23:11.920Z,8.87
2019-05-07T20:25:38.532Z,9.70
2019-05-07T20:28:05.565Z,8.97
2019-05-07T20:30:33.086Z,9.30
2019-05-07T20:33:00.084Z,8.83
2019-05-07T20:35:27.024Z,10.00
2019-05-07T20:37:53.917Z,9.73
2019-05-07T20:40:22.593Z,9.97
2019-05-07T20:42:49.412Z,9.57
2019-05-07T20:45:16.650Z,9.73
2019-05-07T20:47:43.707Z,9.97
2019-05-07T20:50:12.571Z,9.33
2019-05-07T20:52:41.732Z,10.03
2019-05-07T20:55:21.068Z,9.73
2019-05-07T20:57:43.480Z,10.37
2019-05-07T21:00:13.873Z,9.53
2019-05-07T21:02:45.470Z,9.40
2019-05-07T21:05:09.552Z,9.93
2019-05-07T21:07:36.256Z,9.83
2019-05-07T21:10:04.757Z,9.83
2019-05-07T21:12:33.249Z,10.80
2019-05-07T21:14:59.823Z,10.03
2019-05-07T21:17:26.590Z,10.47
2019-05-07T21:19:53.138Z,10.03
2019-05-07T21:22:19.891Z,10.07
2019-05-07T21:24:47.028Z,10.33
2019-05-07T21:27:13.925Z,11.27
2019-05-07T21:29:42.235Z,10.07
2019-05-07T21:32:12.221Z,10.57
2019-05-07T21:34:38.405Z,10.37
2019-05-07T21:37:08.270Z,10.60
2019-05-07T21:39:33.629Z,11.30
2019-05-07T21:42:00.069Z,10.67
2019-05-07T21:44:26.691Z,10.50
2019-05-07T21:46:53.320Z,10.87
2019-05-07T21:49:19.819Z,10.10
2019-05-07T21:51:46.381Z,9.80
2019-05-07T21:54:14.834Z,10.60
2019-05-07T21:56:43.440Z,10.37
2019-05-07T21:59:18.079Z,10.33
2019-05-07T22:01:46.565Z,10.63
2019-05-07T22:04:13.221Z,10.30
2019-05-07T22:06:39.741Z,10.23
2019-05-07T22:09:08.825Z,9.37
2019-05-07T22:11:35.576Z,10.90
2019-05-07T22:14:02.385Z,11.10
2019-05-07T22:16:28.916Z,10.53
2019-05-07T22:18:55.354Z,10.63
2019-05-07T22:21:21.845Z,10.53
2019-05-07T22:23:48.387Z,10.80
2019-05-07T22:26:22.377Z,9.70
2019-05-07T22:28:43.349Z,11.43
2019-05-07T22:31:14.342Z,10.50
2019-05-07T22:33:43.992Z,10.63
2019-05-07T22:36:12.555Z,10.40
2019-05-07T22:38:39.032Z,10.80
2019-05-07T22:41:05.434Z,9.70
2019-05-07T22:43:31.989Z,10.40
2019-05-07T22:45:58.685Z,10.33
2019-05-07T22:48:25.312Z,10.77
2019-05-07T22:50:51.934Z,10.27
2019-05-07T22:53:18.425Z,10.53
2019-05-07T22:55:44.956Z,11.03
2019-05-07T22:58:22.466Z,10.70
2019-05-07T23:00:53.776Z,10.43
2019-05-07T23:03:22.716Z,11.97
2019-05-07T23:05:48.679Z,10.10
2019-05-07T23:08:15.193Z,10.43
2019-05-07T23:10:42.157Z,10.53
2019-05-07T23:13:10.125Z,11.33
2019-05-07T23:15:36.734Z,10.33
2019-05-07T23:18:04.405Z,11.23
2019-05-07T23:20:31.934Z,10.57
2019-05-07T23:22:58.690Z,10.50
2019-05-07T23:25:25.019Z,10.50
2019-05-07T23:27:52.456Z,10.57
2019-05-07T23:30:19.944Z,11.67
2019-05-07T23:32:48.421Z,11.83
2019-05-07T23:35:15.024Z,11.70
2019-05-07T23:37:41.986Z,11.13
2019-05-07T23:40:17.967Z,10.97
2019-05-07T23:42:49.248Z,11.30
2019-05-07T23:45:15.789Z,11.27
2019-05-07T23:47:44.703Z,11.43
2019-05-07T23:50:12.639Z,10.03
2019-05-07T23:52:39.080Z,11.10
2019-05-07T23:55:05.919Z,11.07
2019-05-07T23:57:32.673Z,10.97
2019-05-07T23:59:59.238Z,10.67
